Terminal Aerodrome Forecast
Issued by NWS Austin/San Antonio, TX

Home | Current Version | Previous Version | Text Only | Print | Product List | Glossary On
Versions: 1 2 3 4 5 6 7 8 9 10 11 12 13
000
FTUS44 KEWX 162337
TAFAUS
TAF
KAUS 162337Z 1700/1806 00000KT 3SM RA BR FEW006 BKN023 OVC029
      TEMPO 1700/1702 1SM +RA BR OVC008
     FM170400 VRB04KT 1SM BR OVC003
     FM171700 20005KT P6SM SCT025 BKN250
     FM180000 13005KT P6SM BKN025=

USA.gov is the U.S. government's official web portal to all federal, state and local government web resources and services.